Time;durP1;ratioP1;P1;durP2;ratioP2;P2;SDS_P1;SDS_P2;PMS_P1;PMS_P2;Temp;Humidity;BMP_temperature;BMP_pressure;BME280_temperature;BME280_humidity;BME280_pressure;Samples;Min_cycle;Max_cycle;Signal;HPM_P1;HPM_P2
2023/07/24 00:02:21;;;;;;;2.57;2.20;;;;;;;-145.94;74.05;75438.41;5114347;28;20209;-72
2023/07/24 00:04:48;;;;;;;2.30;2.30;;;;;;;-145.94;74.16;75448.59;5114417;28;20220;-72
2023/07/24 00:07:14;;;;;;;2.60;2.50;;;;;;;-145.94;74.27;75448.59;5114594;28;20181;-72
2023/07/24 00:09:41;;;;;;;2.83;2.63;;;;;;;-145.94;74.29;75448.59;5114601;28;20184;-72
2023/07/24 00:12:07;;;;;;;2.10;2.10;;;;;;;-145.94;74.16;75440.44;5114201;28;20204;-72
2023/07/24 00:14:34;;;;;;;2.33;2.33;;;;;;;-145.94;74.31;75442.47;5114129;28;20205;-72
2023/07/24 00:17:01;;;;;;;2.57;2.57;;;;;;;-145.94;74.13;75448.59;5114205;28;20655;-72
2023/07/24 00:19:27;;;;;;;2.57;2.47;;;;;;;-145.94;74.55;75452.69;5114422;28;20627;-72
2023/07/24 00:21:53;;;;;;;2.73;2.73;;;;;;;-145.94;74.55;75446.56;5114272;28;20309;-71
2023/07/24 00:24:20;;;;;;;2.20;2.10;;;;;;;-145.94;74.80;75446.56;5114076;28;20188;-71
2023/07/24 00:26:46;;;;;;;2.07;2.07;;;;;;;-145.94;74.70;75446.56;5114049;28;20189;-71
2023/07/24 00:29:13;;;;;;;2.23;2.20;;;;;;;-145.94;74.84;75440.44;5114129;28;20189;-71
2023/07/24 00:31:41;;;;;;;2.50;2.40;;;;;;;-145.94;74.81;75442.47;5114144;28;20263;-72
2023/07/24 00:34:08;;;;;;;2.73;2.63;;;;;;;-145.94;74.76;75448.59;5114459;28;20169;-72
2023/07/24 00:36:34;;;;;;;4.33;2.23;;;;;;;-145.94;74.51;75444.53;5113981;28;20258;-72
2023/07/24 00:39:01;;;;;;;2.30;2.30;;;;;;;-145.94;74.68;75446.56;5095458;28;20193;-72
2023/07/24 00:41:30;;;;;;;2.63;2.63;;;;;;;-145.94;74.76;75446.56;5095581;28;20193;-72
2023/07/24 00:43:56;;;;;;;2.10;2.10;;;;;;;-145.94;74.79;75446.56;5113988;28;20208;-72
2023/07/24 00:46:23;;;;;;;2.77;2.03;;;;;;;-145.94;74.73;75442.47;5095546;28;20242;-72
2023/07/24 00:48:50;;;;;;;2.00;2.00;;;;;;;-145.94;74.96;75444.53;5113780;28;20182;-72
2023/07/24 00:51:17;;;;;;;2.07;2.07;;;;;;;-145.94;74.76;75450.63;5095760;28;20704;-72
2023/07/24 00:53:44;;;;;;;2.67;2.67;;;;;;;-145.94;74.76;75444.53;5113650;28;20237;-72
2023/07/24 00:56:11;;;;;;;2.70;2.60;;;;;;;-145.94;74.87;75450.63;5114179;28;20201;-72
2023/07/24 00:58:38;;;;;;;2.53;2.53;;;;;;;-145.94;74.88;75446.56;5095394;28;20246;-71
2023/07/24 01:01:04;;;;;;;2.63;2.63;;;;;;;-145.94;75.10;75444.53;5095423;28;20189;-72
2023/07/24 01:03:33;;;;;;;2.50;2.50;;;;;;;-145.94;75.23;75438.41;5113822;28;20262;-71
2023/07/24 01:06:03;;;;;;;2.40;2.40;;;;;;;-145.94;75.19;75438.41;5095395;28;20643;-71
2023/07/24 01:08:30;;;;;;;3.07;2.90;;;;;;;-145.94;75.35;75442.47;5113606;28;20173;-71
2023/07/24 01:11:03;;;;;;;2.93;2.73;;;;;;;-145.94;75.33;75440.44;5095354;28;20193;-71
2023/07/24 01:13:36;;;;;;;2.50;2.40;;;;;;;-145.94;75.45;75440.44;5114085;28;20266;-71
2023/07/24 01:16:12;;;;;;;2.90;2.90;;;;;;;-145.94;75.35;75432.28;5096078;28;20212;-71
2023/07/24 01:18:39;;;;;;;2.40;2.40;;;;;;;-145.94;75.20;75432.28;5114082;28;20178;-71
2023/07/24 01:21:08;;;;;;;2.47;2.47;;;;;;;-145.94;75.40;75434.34;5113413;28;20720;-71
2023/07/24 01:23:54;;;;;;;2.47;2.37;;;;;;;-145.94;75.40;75430.25;5094904;28;20220;-71
2023/07/24 01:26:21;;;;;;;2.97;2.60;;;;;;;-145.94;75.54;75432.28;5094766;28;20688;-72
2023/07/24 01:28:48;;;;;;;3.07;3.03;;;;;;;-145.94;75.44;75426.19;5113429;28;20230;-72
2023/07/24 01:31:16;;;;;;;4.00;2.40;;;;;;;-145.94;75.60;75424.13;5113523;28;20201;-71
2023/07/24 01:33:44;;;;;;;2.73;2.60;;;;;;;-145.94;75.59;75415.97;5113403;28;20225;-71
2023/07/24 01:36:11;;;;;;;3.00;3.00;;;;;;;-145.94;75.53;75415.97;5113239;28;20205;-71
2023/07/24 01:38:38;;;;;;;2.90;2.80;;;;;;;-145.94;75.59;75411.91;5095038;28;20197;-71
2023/07/24 01:41:05;;;;;;;2.73;2.63;;;;;;;-145.94;75.50;75413.94;5113311;28;20215;-71
2023/07/24 01:43:32;;;;;;;3.13;3.03;;;;;;;-145.94;75.69;75401.72;5095201;28;20213;-71
2023/07/24 01:45:58;;;;;;;2.50;2.50;;;;;;;-145.94;75.40;75403.75;5113216;28;20174;-71
2023/07/24 01:48:25;;;;;;;3.50;3.30;;;;;;;-145.94;75.43;75401.72;5114373;28;20196;-71
2023/07/24 01:50:53;;;;;;;2.53;2.43;;;;;;;-145.94;75.62;75403.75;5117038;28;20185;-71
2023/07/24 01:53:20;;;;;;;2.30;2.30;;;;;;;-145.94;75.47;75401.72;5117152;28;20250;-71
2023/07/24 01:55:46;;;;;;;2.10;2.10;;;;;;;-145.94;75.48;75405.78;5098833;28;20209;-73
2023/07/24 01:58:12;;;;;;;2.80;2.80;;;;;;;-145.94;75.46;75399.69;5098888;28;20193;-72
2023/07/24 02:00:39;;;;;;;4.77;3.40;;;;;;;-145.94;75.55;75399.69;5098567;28;20216;-72
2023/07/24 02:03:05;;;;;;;2.97;2.90;;;;;;;-145.94;75.29;75387.44;5117020;28;20295;-73
2023/07/24 02:05:32;;;;;;;2.40;2.30;;;;;;;-145.94;75.22;75387.44;5116772;28;20551;-73
2023/07/24 02:07:58;;;;;;;4.60;2.67;;;;;;;-145.94;75.39;75387.44;5098628;28;20189;-73
2023/07/24 02:10:25;;;;;;;2.70;2.57;;;;;;;-145.94;75.31;75387.44;5116671;28;20209;-73
2023/07/24 02:12:51;;;;;;;3.30;3.20;;;;;;;-145.94;75.28;75387.44;5116544;28;20258;-73
2023/07/24 02:15:18;;;;;;;3.07;2.87;;;;;;;-145.94;75.39;75387.44;5116462;28;20205;-73
2023/07/24 02:17:44;;;;;;;2.90;2.80;;;;;;;-145.94;75.17;75383.38;5116518;28;20193;-73
2023/07/24 02:20:11;;;;;;;2.60;2.50;;;;;;;-145.94;75.25;75383.38;5116487;28;20177;-73
2023/07/24 02:22:37;;;;;;;2.30;2.30;;;;;;;-145.94;75.21;75383.38;5116361;28;20266;-73
2023/07/24 02:25:05;;;;;;;3.00;2.90;;;;;;;-145.94;75.28;75383.38;5098062;28;20181;-73
2023/07/24 02:27:34;;;;;;;3.53;3.43;;;;;;;-145.94;75.02;75375.22;5116346;28;20235;-73
2023/07/24 02:30:01;;;;;;;4.00;3.77;;;;;;;-145.94;75.19;75379.28;5116140;28;20223;-73
2023/07/24 02:32:28;;;;;;;4.73;4.73;;;;;;;-145.94;75.11;75373.19;5116173;28;20213;-72
2023/07/24 02:34:55;;;;;;;4.73;4.53;;;;;;;-145.94;75.07;75369.09;5097861;28;20185;-72
2023/07/24 02:37:21;;;;;;;4.20;3.90;;;;;;;-145.94;75.09;75365.03;5116385;28;20208;-71
2023/07/24 02:39:48;;;;;;;3.53;3.43;;;;;;;-145.94;75.00;75363.00;5116342;28;20588;-71
2023/07/24 02:42:14;;;;;;;4.40;4.03;;;;;;;-145.94;75.08;75356.88;5116156;28;20208;-71
2023/07/24 02:44:41;;;;;;;3.07;3.07;;;;;;;-145.94;74.94;75358.91;5115981;28;20554;-72
2023/07/24 02:47:07;;;;;;;3.40;3.30;;;;;;;-145.94;75.09;75363.00;5116006;28;20185;-72
2023/07/24 02:49:33;;;;;;;3.40;3.30;;;;;;;-145.94;75.13;75350.75;5116702;28;20177;-72
2023/07/24 02:52:00;;;;;;;3.13;3.03;;;;;;;-145.94;74.63;75344.63;5115781;28;20181;-71
2023/07/24 02:54:27;;;;;;;2.90;2.90;;;;;;;-145.94;74.70;75350.75;5115795;28;20235;-71
2023/07/24 02:56:53;;;;;;;3.67;3.57;;;;;;;-145.94;74.75;75342.59;5097420;28;20239;-71
2023/07/24 02:59:20;;;;;;;7.20;2.93;;;;;;;-145.94;74.48;75340.56;5097450;28;20193;-71
2023/07/24 03:01:47;;;;;;;2.90;2.80;;;;;;;-145.94;74.48;75330.38;5096740;28;20276;-71
2023/07/24 03:04:13;;;;;;;3.03;2.97;;;;;;;-145.94;74.28;75332.41;5115660;28;20181;-71
2023/07/24 03:06:40;;;;;;;3.37;3.10;;;;;;;-145.94;74.23;75328.34;5115861;28;20238;-71
2023/07/24 03:09:06;;;;;;;3.63;3.17;;;;;;;-145.94;73.98;75318.13;5116274;28;20642;-71
2023/07/24 03:11:33;;;;;;;3.90;3.90;;;;;;;-145.94;73.91;75318.13;5115459;28;20192;-71
2023/07/24 03:14:01;;;;;;;3.67;3.57;;;;;;;-145.94;73.98;75305.91;5115892;28;20604;-71
2023/07/24 03:16:28;;;;;;;3.43;3.23;;;;;;;-145.94;74.09;75305.91;5097007;28;20615;-71
2023/07/24 03:18:54;;;;;;;7.13;3.10;;;;;;;-145.94;74.00;75305.91;5115574;28;20188;-72
2023/07/24 03:21:21;;;;;;;3.00;3.00;;;;;;;-145.94;73.96;75301.84;5115598;28;20547;-72
2023/07/24 03:23:47;;;;;;;3.40;3.20;;;;;;;-145.94;73.90;75297.75;5115151;28;20201;-72
2023/07/24 03:26:14;;;;;;;3.67;3.13;;;;;;;-145.94;73.96;75305.91;5115494;28;20193;-72
2023/07/24 03:28:40;;;;;;;3.70;3.60;;;;;;;-145.94;73.97;75310.00;5115283;28;20186;-73
2023/07/24 03:31:07;;;;;;;3.37;3.17;;;;;;;-145.94;74.10;75303.88;5115054;28;20254;-73
2023/07/24 03:33:33;;;;;;;4.10;3.70;;;;;;;-145.94;74.16;75301.84;5115179;28;20209;-74
2023/07/24 03:36:00;;;;;;;4.80;3.40;;;;;;;-145.94;74.47;75303.88;5115196;28;20193;-74
2023/07/24 03:38:27;;;;;;;3.73;3.43;;;;;;;-145.94;74.94;75305.91;5115226;28;20161;-73
2023/07/24 03:40:53;;;;;;;6.10;4.03;;;;;;;-145.94;75.04;75316.09;5115195;28;20174;-73
2023/07/24 03:43:20;;;;;;;3.70;3.50;;;;;;;-145.94;74.92;75318.13;5114825;28;20236;-73
2023/07/24 03:45:47;;;;;;;5.80;3.53;;;;;;;-145.94;74.84;75310.00;5096800;28;20185;-74
2023/07/24 03:48:13;;;;;;;3.63;3.53;;;;;;;-145.94;75.09;75307.94;5114745;28;20242;-75
2023/07/24 03:50:40;;;;;;;6.90;3.60;;;;;;;-145.94;75.46;75307.94;5114698;28;20185;-75
2023/07/24 03:53:07;;;;;;;4.23;4.07;;;;;;;-145.94;75.45;75301.84;5114768;28;20208;-74
2023/07/24 03:55:33;;;;;;;4.00;3.83;;;;;;;-145.94;75.84;75307.94;5114784;28;20209;-75
2023/07/24 03:58:00;;;;;;;4.00;3.70;;;;;;;-145.94;75.89;75307.94;5114739;28;20193;-74
2023/07/24 04:00:26;;;;;;;4.00;3.90;;;;;;;-145.94;76.30;75310.00;5114520;28;20197;-74
2023/07/24 04:02:53;;;;;;;3.67;3.57;;;;;;;-145.94;76.11;75312.03;5114692;28;20213;-74
2023/07/24 04:05:19;;;;;;;3.70;3.50;;;;;;;-145.94;76.14;75310.00;5114657;28;20181;-74
2023/07/24 04:07:46;;;;;;;4.87;4.00;;;;;;;-145.94;76.15;75307.94;5114614;28;20181;-74
2023/07/24 04:10:12;;;;;;;4.43;4.03;;;;;;;-145.94;76.28;75305.91;5114371;28;20231;-74
2023/07/24 04:12:39;;;;;;;5.40;4.50;;;;;;;-145.94;76.54;75314.06;5113572;28;20196;-74
2023/07/24 04:15:06;;;;;;;4.13;4.00;;;;;;;-145.94;76.51;75314.06;5114572;28;20169;-74
2023/07/24 04:17:32;;;;;;;4.40;4.20;;;;;;;-145.94;76.59;75305.91;5114615;28;20216;-74
2023/07/24 04:20:00;;;;;;;3.63;3.53;;;;;;;-145.94;76.42;75307.94;5114222;28;20170;-75
2023/07/24 04:22:26;;;;;;;3.40;3.40;;;;;;;-145.94;76.78;75310.00;5114477;28;20211;-73
2023/07/24 04:24:52;;;;;;;4.10;3.90;;;;;;;-145.94;77.01;75314.06;5114393;28;20185;-74
2023/07/24 04:27:19;;;;;;;4.03;3.73;;;;;;;-145.94;77.28;75314.06;5114084;28;20188;-74
2023/07/24 04:29:45;;;;;;;7.60;3.77;;;;;;;-145.94;77.47;75322.22;5114296;28;20340;-74
2023/07/24 04:32:12;;;;;;;4.90;3.67;;;;;;;-145.94;77.45;75318.13;5114162;28;20209;-73
2023/07/24 04:34:38;;;;;;;4.20;3.93;;;;;;;-145.94;77.50;75322.22;5114206;28;20173;-73
2023/07/24 04:37:05;;;;;;;4.77;4.40;;;;;;;-145.94;77.58;75318.13;5114134;28;20197;-73
2023/07/24 04:39:31;;;;;;;4.73;4.37;;;;;;;-145.94;77.55;75326.28;5114155;28;20189;-73
2023/07/24 04:41:57;;;;;;;4.53;4.40;;;;;;;-145.94;77.64;75320.19;5114057;28;20574;-73
2023/07/24 04:44:24;;;;;;;3.70;3.50;;;;;;;-145.94;77.71;75322.22;5114089;28;20185;-74
2023/07/24 04:46:50;;;;;;;4.17;3.97;;;;;;;-145.94;77.79;75328.34;5113799;28;20189;-74
2023/07/24 04:49:17;;;;;;;5.57;4.80;;;;;;;-145.94;77.74;75324.25;5114634;28;20591;-74
2023/07/24 04:51:43;;;;;;;4.17;4.00;;;;;;;-145.94;77.74;75322.22;5113643;28;20182;-73
2023/07/24 04:54:09;;;;;;;3.57;3.37;;;;;;;-145.94;77.86;75326.28;5113972;28;20675;-75
2023/07/24 04:56:36;;;;;;;5.67;4.30;;;;;;;-145.94;77.69;75332.41;5113606;28;20261;-75
2023/07/24 04:59:02;;;;;;;6.17;4.57;;;;;;;-145.94;77.82;75322.22;5114195;28;20569;-74
2023/07/24 05:01:29;;;;;;;4.53;4.23;;;;;;;-145.94;77.78;75316.09;5114301;28;20658;-74
2023/07/24 05:03:55;;;;;;;4.67;4.57;;;;;;;-145.94;77.85;75314.06;5114657;28;20554;-74
2023/07/24 05:06:23;;;;;;;7.10;4.60;;;;;;;-145.94;77.67;75314.06;5113907;28;20238;-74
2023/07/24 05:08:49;;;;;;;4.60;4.43;;;;;;;-145.94;77.80;75307.94;5113778;28;20188;-74
2023/07/24 05:11:16;;;;;;;5.57;5.37;;;;;;;-145.94;77.67;75301.84;5114119;28;20207;-74
2023/07/24 05:13:42;;;;;;;5.53;5.13;;;;;;;-145.94;77.63;75312.03;5113496;28;20209;-73
2023/07/24 05:16:09;;;;;;;4.60;4.40;;;;;;;-145.94;77.63;75305.91;5113762;28;20254;-75
2023/07/24 05:18:35;;;;;;;7.77;4.37;;;;;;;-145.94;77.76;75316.09;5095270;28;20283;-74
2023/07/24 05:21:04;;;;;;;13.53;4.93;;;;;;;-145.94;77.65;75316.09;5113457;28;20185;-74
2023/07/24 05:23:30;;;;;;;6.57;4.90;;;;;;;-145.94;77.54;75318.13;5114770;28;20702;-73
2023/07/24 05:25:58;;;;;;;12.47;5.20;;;;;;;-145.94;77.62;75320.19;5117448;28;20245;-74
2023/07/24 05:28:29;;;;;;;8.77;5.80;;;;;;;-145.94;77.86;75326.28;5117808;28;20507;-74
2023/07/24 05:31:00;;;;;;;8.83;6.23;;;;;;;-145.94;77.54;75316.09;5117296;28;20257;-74
2023/07/24 05:33:26;;;;;;;5.30;5.07;;;;;;;-145.94;77.63;75318.13;5117635;28;20205;-74
2023/07/24 05:36:00;;;;;;;4.80;4.60;;;;;;;-145.94;77.47;75320.19;5117271;28;20189;-75
2023/07/24 05:38:26;;;;;;;7.23;5.20;;;;;;;-145.94;77.26;75326.28;5117598;28;20173;-75
2023/07/24 05:41:02;;;;;;;9.70;5.10;;;;;;;-145.94;77.37;75326.28;5099674;28;20245;-74
2023/07/24 05:43:30;;;;;;;5.20;5.00;;;;;;;-145.94;77.30;75316.09;5117162;28;20698;-74
2023/07/24 05:45:57;;;;;;;4.90;4.50;;;;;;;-145.94;77.21;75318.13;5117411;28;20191;-74
2023/07/24 05:48:24;;;;;;;6.37;4.90;;;;;;;-145.94;77.43;75318.13;5117346;28;20592;-74
2023/07/24 05:50:51;;;;;;;4.70;4.60;;;;;;;-145.94;77.44;75324.25;5117009;28;20205;-74
2023/07/24 05:53:17;;;;;;;5.87;5.23;;;;;;;-145.94;77.67;75318.13;5116887;28;20237;-74
2023/07/24 05:55:44;;;;;;;9.43;4.63;;;;;;;-145.94;77.69;75314.06;5117367;28;20644;-74
2023/07/24 05:58:11;;;;;;;5.80;4.53;;;;;;;-145.94;77.67;75307.94;5117152;28;20655;-74
2023/07/24 06:00:37;;;;;;;6.03;5.10;;;;;;;-145.94;77.78;75303.88;5116875;28;20177;-74
2023/07/24 06:03:04;;;;;;;5.73;5.20;;;;;;;-145.94;77.64;75299.78;5116705;28;20289;-74
2023/07/24 06:05:33;;;;;;;6.03;5.00;;;;;;;-145.94;77.87;75301.84;5117019;28;20732;-74
2023/07/24 06:08:00;;;;;;;7.97;5.20;;;;;;;-145.94;77.67;75291.66;5116944;28;20189;-74
2023/07/24 06:10:26;;;;;;;5.97;5.63;;;;;;;-145.94;77.46;75293.69;5116641;28;20605;-74
2023/07/24 06:12:53;;;;;;;8.07;4.93;;;;;;;-145.94;77.47;75293.69;5116568;28;20686;-73
2023/07/24 06:15:19;;;;;;;7.07;5.27;;;;;;;-145.94;77.38;75293.69;5117097;28;20246;-75
2023/07/24 06:17:46;;;;;;;5.03;4.77;;;;;;;-145.94;77.43;75293.69;5116457;28;20612;-75
2023/07/24 06:20:12;;;;;;;4.93;4.67;;;;;;;-145.94;77.46;75293.69;5117052;28;20185;-74
2023/07/24 06:22:39;;;;;;;4.83;4.60;;;;;;;-145.94;77.30;75299.78;5116371;28;20202;-73
2023/07/24 06:25:05;;;;;;;5.80;5.37;;;;;;;-145.94;77.37;75297.75;5116373;28;20250;-73
2023/07/24 06:27:32;;;;;;;6.03;5.50;;;;;;;-145.94;77.43;75291.66;5116334;28;20190;-74
2023/07/24 06:29:58;;;;;;;5.53;5.20;;;;;;;-145.94;77.06;75289.59;5116343;28;20193;-74
2023/07/24 06:32:40;;;;;;;6.37;5.00;;;;;;;-145.94;77.07;75285.53;5116205;28;20283;-74
2023/07/24 06:35:08;;;;;;;4.57;4.43;;;;;;;-145.94;77.15;75291.66;5115152;28;20193;-74
2023/07/24 06:37:34;;;;;;;4.87;4.47;;;;;;;-145.94;77.11;75287.56;5116404;28;20246;-74
2023/07/24 06:40:00;;;;;;;11.47;4.80;;;;;;;-145.94;76.78;75295.72;5116414;28;20173;-74
2023/07/24 06:42:30;;;;;;;4.67;4.03;;;;;;;-145.94;76.84;75301.84;5116196;28;20208;-74
2023/07/24 06:44:56;;;;;;;4.20;3.90;;;;;;;-145.94;76.69;75295.72;5116586;28;20339;-74
2023/07/24 06:47:24;;;;;;;5.00;4.83;;;;;;;-145.94;76.82;75297.75;5116531;28;20235;-74
2023/07/24 06:49:50;;;;;;;8.27;4.60;;;;;;;-145.94;77.07;75303.88;5116244;28;20178;-74
2023/07/24 06:52:17;;;;;;;6.23;5.00;;;;;;;-145.94;76.94;75297.75;5115772;28;20258;-74
2023/07/24 06:54:43;;;;;;;4.37;4.23;;;;;;;-145.94;76.89;75303.88;5116075;28;20230;-73
2023/07/24 06:57:10;;;;;;;21.60;4.83;;;;;;;-145.94;76.87;75293.69;5116057;28;20205;-73
2023/07/24 06:59:36;;;;;;;5.40;4.37;;;;;;;-145.94;76.96;75297.75;5116251;28;20193;-74
2023/07/24 07:02:03;;;;;;;6.43;4.27;;;;;;;-145.94;76.78;75295.72;5116151;28;20599;-73
2023/07/24 07:04:30;;;;;;;10.60;6.00;;;;;;;-145.94;76.85;75291.66;5115881;28;20189;-73
2023/07/24 07:06:56;;;;;;;4.80;4.60;;;;;;;-145.94;76.50;75287.56;5115590;28;20193;-73
2023/07/24 07:09:22;;;;;;;11.93;5.87;;;;;;;-145.94;76.59;75291.66;5115791;28;20185;-73
2023/07/24 07:11:49;;;;;;;5.53;5.13;;;;;;;-145.94;76.35;75281.44;5116100;28;20185;-73
2023/07/24 07:14:15;;;;;;;6.13;5.63;;;;;;;-145.94;76.03;75277.38;5115963;28;20193;-73
2023/07/24 07:16:42;;;;;;;8.87;6.57;;;;;;;-145.94;76.02;75277.38;5115858;28;20197;-73
2023/07/24 07:19:09;;;;;;;5.77;5.27;;;;;;;-145.94;75.86;75279.41;5115330;28;20655;-73
2023/07/24 07:21:35;;;;;;;8.03;6.43;;;;;;;-145.94;75.62;75275.34;5115287;28;20185;-73
2023/07/24 07:24:02;;;;;;;8.03;5.47;;;;;;;-145.94;75.54;75267.19;5115690;28;20209;-73
2023/07/24 07:26:29;;;;;;;6.07;5.70;;;;;;;-145.94;75.52;75261.06;5115435;28;20238;-73
2023/07/24 07:28:56;;;;;;;11.00;5.20;;;;;;;-145.94;75.40;75265.16;5115176;28;20783;-73
2023/07/24 07:31:23;;;;;;;5.77;5.23;;;;;;;-145.94;75.46;75271.25;5114965;28;20193;-73
2023/07/24 07:33:49;;;;;;;6.30;6.00;;;;;;;-145.94;75.25;75261.06;5115050;28;20228;-72
2023/07/24 07:36:17;;;;;;;5.60;4.80;;;;;;;-145.94;75.23;75254.94;5115129;28;20194;-73
2023/07/24 07:38:43;;;;;;;11.23;4.53;;;;;;;-145.94;75.18;75250.88;5114969;28;20185;-73
2023/07/24 07:41:10;;;;;;;5.70;5.03;;;;;;;-145.94;74.94;75248.84;5115148;28;20250;-73
2023/07/24 07:43:37;;;;;;;5.67;5.17;;;;;;;-145.94;73.79;75254.94;5115722;28;20216;-73
2023/07/24 07:46:04;;;;;;;5.27;4.50;;;;;;;-145.94;73.68;75252.91;5114624;28;20204;-73
2023/07/24 07:48:30;;;;;;;6.40;4.33;;;;;;;-145.94;73.50;75267.19;5114750;28;20181;-73
2023/07/24 07:50:56;;;;;;;4.67;4.53;;;;;;;-145.94;74.24;75265.16;5115201;28;20230;-73
2023/07/24 07:53:23;;;;;;;10.33;6.20;;;;;;;-145.94;74.98;75269.22;5114544;28;20710;-72
2023/07/24 07:56:02;;;;;;;14.23;6.47;;;;;;;-145.94;74.73;75277.38;5114606;28;20185;-72
2023/07/24 07:58:28;;;;;;;7.33;6.77;;;;;;;-145.94;75.00;75271.25;5114992;28;20724;-73
2023/07/24 08:00:55;;;;;;;6.87;5.70;;;;;;;-145.94;74.91;75293.69;5114736;28;20189;-73
2023/07/24 08:03:21;;;;;;;6.13;5.87;;;;;;;-145.94;75.46;75291.66;5114912;28;20221;-73
2023/07/24 08:05:48;;;;;;;5.13;4.80;;;;;;;-145.94;75.11;75297.75;5114687;28;20540;-73
2023/07/24 08:08:14;;;;;;;8.27;5.07;;;;;;;-145.94;74.94;75287.56;5114364;28;20237;-73
2023/07/24 08:10:41;;;;;;;4.10;3.90;;;;;;;-145.94;74.83;75287.56;5114343;28;20271;-73
2023/07/24 08:13:07;;;;;;;4.63;4.20;;;;;;;-145.94;74.51;75289.59;5114400;28;20205;-73
2023/07/24 08:15:37;;;;;;;3.83;3.73;;;;;;;-145.94;74.46;75293.69;5114550;28;20220;-73
2023/07/24 08:18:04;;;;;;;4.07;3.80;;;;;;;-145.94;74.55;75283.50;5114172;28;20196;-73
2023/07/24 08:20:34;;;;;;;3.50;3.30;;;;;;;-145.94;74.42;75285.53;5114423;28;20213;-73
2023/07/24 08:23:01;;;;;;;3.47;3.27;;;;;;;-145.94;74.34;75289.59;5095876;28;20626;-74
2023/07/24 08:25:27;;;;;;;3.23;3.07;;;;;;;-145.94;74.36;75277.38;5114159;28;20189;-74
2023/07/24 08:27:54;;;;;;;3.30;3.20;;;;;;;-145.94;74.35;75267.19;5114142;28;20679;-73
2023/07/24 08:30:26;;;;;;;4.00;3.70;;;;;;;-145.94;74.31;75279.41;5114017;28;20195;-73
2023/07/24 08:32:53;;;;;;;4.13;3.93;;;;;;;-145.94;74.45;75265.16;5113948;28;20774;-73
2023/07/24 08:35:20;;;;;;;5.40;4.10;;;;;;;-145.94;74.26;75259.03;5113956;28;20712;-73
2023/07/24 08:37:46;;;;;;;3.97;3.57;;;;;;;-145.94;73.55;75254.94;5114114;28;20609;-73
2023/07/24 08:40:13;;;;;;;3.40;3.40;;;;;;;-145.94;73.75;75246.78;5114193;28;20235;-73
2023/07/24 08:42:40;;;;;;;3.50;3.40;;;;;;;-145.94;73.98;75230.50;5114047;28;20197;-72
2023/07/24 08:45:16;;;;;;;3.50;3.37;;;;;;;-145.94;73.19;75210.09;5113874;28;20218;-72
2023/07/24 08:47:44;;;;;;;5.13;3.03;;;;;;;-145.94;72.68;75206.03;5114202;28;20612;-72
2023/07/24 08:50:12;;;;;;;4.10;3.57;;;;;;;-145.94;72.51;75208.06;5113795;28;20551;-73
2023/07/24 08:52:39;;;;;;;4.77;2.90;;;;;;;-145.94;70.82;75206.03;5114227;28;20201;-72
2023/07/24 08:55:06;;;;;;;3.43;3.33;;;;;;;-145.94;71.16;75204.00;5113990;28;20222;-72
2023/07/24 08:57:32;;;;;;;2.57;2.57;;;;;;;-145.94;70.99;75191.75;5114121;28;20205;-72
2023/07/24 09:00:00;;;;;;;3.73;3.47;;;;;;;-145.94;70.81;75169.34;5113684;28;20677;-72
2023/07/24 09:02:27;;;;;;;4.90;3.37;;;;;;;-145.94;69.63;75153.03;5113601;28;20205;-72
2023/07/24 09:04:53;;;;;;;3.03;2.83;;;;;;;-145.94;69.24;75138.75;5113943;28;20197;-72
2023/07/24 09:07:20;;;;;;;2.73;2.73;;;;;;;-145.94;69.71;75124.50;5113595;28;20578;-72
2023/07/24 09:09:49;;;;;;;2.10;2.10;;;;;;;-145.94;67.88;75126.53;5113822;28;20193;-72
2023/07/24 09:12:16;;;;;;;2.43;2.43;;;;;;;-145.94;68.10;75100.03;5113539;28;20205;-72
2023/07/24 09:14:45;;;;;;;2.77;2.20;;;;;;;-145.94;67.04;75095.97;5113564;28;20215;-72
2023/07/24 09:17:12;;;;;;;2.30;2.10;;;;;;;-145.94;66.02;75108.19;5113419;28;20674;-72
2023/07/24 09:19:39;;;;;;;2.30;2.20;;;;;;;-145.94;65.63;75108.19;5113512;28;20197;-72
2023/07/24 09:22:14;;;;;;;2.77;2.67;;;;;;;-145.94;65.76;75114.31;5113407;28;20575;-72
2023/07/24 09:24:54;;;;;;;2.00;2.00;;;;;;;-145.94;65.92;75124.50;5113790;28;20522;-72
2023/07/24 09:27:25;;;;;;;4.47;2.30;;;;;;;-145.94;66.64;75118.38;5113568;28;20192;-72
2023/07/24 09:29:52;;;;;;;3.33;3.30;;;;;;;-145.94;64.70;75122.47;5113401;28;20254;-72
2023/07/24 09:32:23;;;;;;;3.00;2.87;;;;;;;-145.94;64.38;75126.53;5113305;28;20209;-72
2023/07/24 09:34:56;;;;;;;3.33;3.33;;;;;;;-145.94;64.15;75136.72;5113356;28;20646;-71
2023/07/24 09:37:23;;;;;;;3.67;3.57;;;;;;;-145.94;65.37;75138.75;5113484;28;20628;-72
2023/07/24 09:39:50;;;;;;;2.90;2.90;;;;;;;-145.94;65.58;75136.72;5114075;28;20189;-72
2023/07/24 09:42:16;;;;;;;2.53;2.50;;;;;;;-145.94;65.70;75128.56;5113233;28;20201;-72
2023/07/24 09:44:43;;;;;;;2.70;2.70;;;;;;;-145.94;65.19;75134.69;5113815;28;20648;-72
2023/07/24 09:47:09;;;;;;;3.03;2.93;;;;;;;-145.94;65.19;75134.69;5113821;28;20177;-72
2023/07/24 09:49:56;;;;;;;2.67;2.67;;;;;;;-145.94;65.70;75130.63;5113526;28;20650;-72
2023/07/24 09:52:26;;;;;;;2.73;2.63;;;;;;;-145.94;64.75;75138.75;5113776;28;20201;-72
2023/07/24 09:55:05;;;;;;;2.27;2.27;;;;;;;-145.94;65.07;75144.88;5113514;28;20173;-71
2023/07/24 09:57:32;;;;;;;3.80;2.47;;;;;;;-145.94;65.62;75130.63;5113081;28;20659;-72
2023/07/24 10:00:00;;;;;;;2.40;2.30;;;;;;;-145.94;65.39;75124.50;5113119;28;20196;-72
2023/07/24 10:02:30;;;;;;;6.33;2.10;;;;;;;-145.94;65.62;75122.47;5113418;28;20205;-72
2023/07/24 10:04:57;;;;;;;1.93;1.87;;;;;;;-145.94;65.48;75116.34;5113053;28;20196;-72
2023/07/24 10:07:24;;;;;;;1.90;1.90;;;;;;;-145.94;65.76;75114.31;5113338;28;20218;-71
2023/07/24 10:09:51;;;;;;;2.17;2.17;;;;;;;-145.94;66.07;75108.19;5113345;28;20708;-71
2023/07/24 10:12:19;;;;;;;2.47;2.47;;;;;;;-145.94;66.77;75108.19;5116649;28;20240;-71
2023/07/24 10:14:46;;;;;;;3.27;3.07;;;;;;;-145.94;67.37;75110.22;5116958;28;20595;-71
2023/07/24 10:17:13;;;;;;;4.50;3.27;;;;;;;-145.94;68.13;75106.16;5116513;28;20250;-72
2023/07/24 10:19:42;;;;;;;3.23;3.13;;;;;;;-145.94;68.71;75093.91;5098319;28;20223;-72
2023/07/24 10:22:18;;;;;;;3.33;3.20;;;;;;;-145.94;68.67;75079.66;5116421;28;20283;-71
2023/07/24 10:24:46;;;;;;;2.70;2.70;;;;;;;-145.94;68.85;75073.53;5116746;28;20234;-71
2023/07/24 10:27:12;;;;;;;3.40;3.20;;;;;;;-145.94;68.91;75061.31;5116634;28;20188;-71
2023/07/24 10:29:39;;;;;;;3.10;3.00;;;;;;;-145.94;69.11;75053.16;5116446;28;20204;-72
2023/07/24 10:32:18;;;;;;;2.80;2.70;;;;;;;-145.94;68.78;75055.19;5116474;28;20201;-72
2023/07/24 10:34:44;;;;;;;3.27;3.27;;;;;;;-145.94;68.04;75059.28;5116229;28;20182;-72
2023/07/24 10:37:11;;;;;;;2.53;2.47;;;;;;;-145.94;68.34;75053.16;5116062;28;20231;-72
2023/07/24 10:39:40;;;;;;;2.67;2.67;;;;;;;-145.94;68.00;75055.19;5116161;28;20188;-72
2023/07/24 10:42:09;;;;;;;3.40;3.40;;;;;;;-145.94;67.98;75051.13;5116265;28;20209;-71
2023/07/24 10:44:36;;;;;;;2.57;2.47;;;;;;;-145.94;67.41;75047.03;5116837;28;20524;-72
2023/07/24 10:47:03;;;;;;;3.30;2.57;;;;;;;-145.94;67.14;75049.09;5116005;28;20189;-71
2023/07/24 10:49:29;;;;;;;2.77;2.77;;;;;;;-145.94;66.31;75055.19;5116473;28;20182;-71
2023/07/24 10:51:57;;;;;;;2.60;2.60;;;;;;;-145.94;66.07;75053.16;5116119;28;20223;-71
2023/07/24 10:54:23;;;;;;;2.97;2.97;;;;;;;-145.94;66.05;75045.00;5116401;28;20178;-71
2023/07/24 10:56:57;;;;;;;2.87;2.87;;;;;;;-145.94;66.51;75045.00;5115821;28;20181;-71
2023/07/24 10:59:35;;;;;;;6.17;3.40;;;;;;;-145.94;66.25;75047.03;5116020;28;20253;-72
2023/07/24 11:02:04;;;;;;;3.97;3.87;;;;;;;-145.94;66.22;75059.28;5115663;28;20179;-72
2023/07/24 11:04:30;;;;;;;3.90;3.77;;;;;;;-145.94;66.31;75061.31;5115981;28;20595;-72
2023/07/24 11:06:57;;;;;;;4.03;3.60;;;;;;;-145.94;66.75;75063.34;5116249;28;20178;-73
2023/07/24 11:09:35;;;;;;;7.90;3.57;;;;;;;-145.94;67.80;75053.16;5097324;28;20596;-73
2023/07/24 11:12:12;;;;;;;4.03;3.93;;;;;;;-145.94;68.73;75047.03;5115749;28;20575;-73
2023/07/24 11:14:54;;;;;;;3.50;3.50;;;;;;;-145.94;69.67;75053.16;5116043;28;20185;-73
2023/07/24 11:17:21;;;;;;;3.47;3.37;;;;;;;-145.94;70.42;75061.31;5115636;28;20255;-73
2023/07/24 11:19:47;;;;;;;5.90;3.77;;;;;;;-145.94;70.40;75065.38;5115359;28;20624;-73